Time;durP1;ratioP1;P1;durP2;ratioP2;P2;SDS_P1;SDS_P2;PMS_P1;PMS_P2;Temp;Humidity;BMP_temperature;BMP_pressure;BME280_temperature;BME280_humidity;BME280_pressure;Samples;Min_cycle;Max_cycle;Signal;HPM_P1;HPM_P2
2022/05/02 00:00:08;;;;;;;9.85;4.45;;;;;;;8.16;62.31;102222.63;5053673;28;20036;-77
2022/05/02 00:02:35;;;;;;;8.32;4.32;;;;;;;8.15;61.94;102222.84;5059531;28;20031;-77
2022/05/02 00:05:01;;;;;;;11.07;4.15;;;;;;;8.14;62.07;102221.19;5055423;28;20025;-77
2022/05/02 00:07:27;;;;;;;6.78;4.03;;;;;;;8.12;62.46;102218.72;5061703;28;20504;-77
2022/05/02 00:09:52;;;;;;;6.55;4.43;;;;;;;8.13;62.13;102227.56;5062840;28;20036;-77
2022/05/02 00:12:18;;;;;;;6.97;4.78;;;;;;;8.12;62.17;102226.72;5044000;28;20024;-77
2022/05/02 00:14:43;;;;;;;5.57;4.25;;;;;;;8.12;62.33;102220.56;5061440;28;20587;-77
2022/05/02 00:17:09;;;;;;;6.07;4.45;;;;;;;8.14;62.32;102224.69;5062177;28;20155;-78
2022/05/02 00:19:35;;;;;;;8.65;4.88;;;;;;;8.13;62.45;102215.03;5060989;28;20033;-77
2022/05/02 00:22:01;;;;;;;8.55;4.85;;;;;;;8.12;62.49;102213.38;5060723;28;20568;-77
2022/05/02 00:24:26;;;;;;;6.93;4.47;;;;;;;8.09;62.56;102208.44;5061189;28;21166;-78
2022/05/02 00:26:52;;;;;;;8.00;4.88;;;;;;;8.07;63.05;102205.13;5057062;28;20021;-77
2022/05/02 00:29:18;;;;;;;8.90;4.80;;;;;;;8.04;62.88;102210.84;5058266;28;20032;-77
2022/05/02 00:31:45;;;;;;;6.50;4.43;;;;;;;8.04;63.12;102212.69;5055997;28;20033;-77
2022/05/02 00:34:12;;;;;;;12.50;6.07;;;;;;;7.98;63.71;102206.31;5044407;28;20122;-77
2022/05/02 00:36:39;;;;;;;10.00;5.40;;;;;;;7.93;63.73;102206.06;5057932;28;20021;-77
2022/05/02 00:39:04;;;;;;;8.45;5.40;;;;;;;7.84;63.91;102208.03;5057461;28;20059;-77
2022/05/02 00:41:30;;;;;;;9.48;5.70;;;;;;;7.84;63.58;102205.38;5055821;28;20123;-77
2022/05/02 00:43:56;;;;;;;8.38;5.18;;;;;;;7.86;63.49;102203.34;5056208;28;20469;-77
2022/05/02 00:46:23;;;;;;;9.38;5.57;;;;;;;7.88;63.63;102211.16;5056119;28;20024;-77
2022/05/02 00:48:49;;;;;;;9.63;5.55;;;;;;;7.85;63.65;102211.53;5056960;28;20032;-77
2022/05/02 00:51:16;;;;;;;10.18;5.15;;;;;;;7.82;63.75;102207.41;5054433;28;20035;-77
2022/05/02 00:53:43;;;;;;;11.57;5.15;;;;;;;7.78;63.70;102210.69;5058695;28;20024;-77
2022/05/02 00:56:09;;;;;;;8.73;5.30;;;;;;;7.73;63.47;102213.09;5058902;28;20402;-77
2022/05/02 00:58:36;;;;;;;7.90;4.90;;;;;;;7.68;63.48;102205.66;5059081;28;20017;-78
2022/05/02 01:01:03;;;;;;;6.28;4.32;;;;;;;7.62;64.07;102209.09;5062365;28;20082;-77
2022/05/02 01:03:29;;;;;;;8.88;5.20;;;;;;;7.56;63.61;102218.72;5072384;28;20039;-77
2022/05/02 01:08:53;;;;;;;11.30;5.05;;;;;;;7.24;65.07;102212.06;5009665;28;20034;-77
2022/05/02 01:11:18;;;;;;;11.98;4.82;;;;;;;7.17;65.32;102228.97;5059344;28;20036;-77
2022/05/02 01:13:46;;;;;;;7.78;5.00;;;;;;;7.09;65.47;102215.78;5060075;28;20051;-76
2022/05/02 01:16:22;;;;;;;7.93;5.25;;;;;;;7.05;65.45;102220.69;5060265;28;20369;-77
2022/05/02 01:18:51;;;;;;;8.50;5.43;;;;;;;7.07;65.00;102215.16;5058951;28;20040;-77
2022/05/02 01:21:18;;;;;;;8.18;4.95;;;;;;;7.03;65.13;102213.88;5061378;28;20032;-77
2022/05/02 01:23:45;;;;;;;6.45;4.78;;;;;;;7.00;65.27;102219.56;5063303;28;20024;-77
2022/05/02 01:26:11;;;;;;;14.05;5.85;;;;;;;6.96;64.95;102216.47;5060301;28;20029;-77
2022/05/02 01:28:44;;;;;;;11.63;6.03;;;;;;;6.88;65.32;102222.75;5060832;28;20024;-77
2022/05/02 01:31:10;;;;;;;9.10;5.65;;;;;;;6.88;65.36;102221.91;5059215;28;20042;-77
2022/05/02 01:33:36;;;;;;;8.70;5.60;;;;;;;6.84;65.27;102220.66;5061904;28;20082;-78
2022/05/02 01:36:03;;;;;;;13.65;6.22;;;;;;;6.79;64.97;102215.84;5064050;28;20017;-77
2022/05/02 01:38:29;;;;;;;10.65;5.35;;;;;;;6.75;65.25;102214.59;5058517;28;20017;-77
2022/05/02 01:40:54;;;;;;;9.75;5.10;;;;;;;6.67;65.21;102206.72;5059406;28;20556;-77
2022/05/02 01:43:20;;;;;;;10.35;5.07;;;;;;;6.60;65.02;102208.44;5061740;28;20021;-77
2022/05/02 01:45:45;;;;;;;8.82;5.20;;;;;;;6.52;65.32;102206.72;5061720;28;20028;-77
2022/05/02 01:48:10;;;;;;;10.75;5.75;;;;;;;6.46;65.29;102203.97;5059200;28;20028;-78
2022/05/02 01:50:36;;;;;;;12.27;5.05;;;;;;;6.39;65.40;102203.06;5059470;28;20068;-77
2022/05/02 01:53:02;;;;;;;14.55;5.93;;;;;;;6.30;65.59;102200.50;5058897;28;20190;-77
2022/05/02 01:55:27;;;;;;;9.73;5.95;;;;;;;6.24;65.98;102197.75;5056160;28;20470;-77
2022/05/02 01:57:53;;;;;;;9.07;5.30;;;;;;;6.18;65.99;102196.66;5059836;28;20019;-77
2022/05/02 02:00:18;;;;;;;7.70;4.90;;;;;;;6.12;65.97;102194.72;5060663;28;20028;-77
2022/05/02 02:02:44;;;;;;;10.60;5.93;;;;;;;6.09;66.18;102196.91;5061154;28;20029;-77
2022/05/02 02:07:54;;;;;;;8.23;5.90;;;;;;;5.99;65.99;102199.84;5054931;28;20112;-77
2022/05/02 02:10:19;;;;;;;8.70;5.45;;;;;;;5.92;66.18;102197.06;5060061;28;20111;-78
2022/05/02 02:12:45;;;;;;;13.18;6.05;;;;;;;5.86;66.27;102191.63;5058318;28;20097;-77
2022/05/02 02:15:14;;;;;;;12.07;5.22;;;;;;;5.79;66.59;102188.88;5058949;28;20033;-77
2022/05/02 02:17:42;;;;;;;9.20;5.35;;;;;;;5.72;66.51;102182.63;5064277;28;20989;-77
2022/05/02 02:20:09;;;;;;;8.30;5.70;;;;;;;5.67;66.83;102183.16;5060735;28;20041;-77
2022/05/02 02:22:36;;;;;;;11.38;5.30;;;;;;;5.64;66.80;102182.72;5061917;28;20028;-77
2022/05/02 02:25:03;;;;;;;13.65;5.82;;;;;;;5.59;66.86;102175.28;5064030;28;20420;-77
2022/05/02 02:27:28;;;;;;;14.88;6.55;;;;;;;5.55;66.90;102181.13;5058758;28;20025;-77
2022/05/02 02:29:54;;;;;;;11.18;5.80;;;;;;;5.50;67.40;102170.19;5057136;28;20051;-77
2022/05/02 02:32:20;;;;;;;10.38;6.53;;;;;;;5.43;67.60;102168.28;5057718;28;20111;-77
2022/05/02 02:34:45;;;;;;;8.43;5.38;;;;;;;5.39;67.52;102167.00;5057365;28;20039;-77
2022/05/02 02:37:11;;;;;;;9.40;5.70;;;;;;;5.35;67.50;102172.81;5067306;28;20044;-77
2022/05/02 02:39:36;;;;;;;11.13;6.50;;;;;;;5.28;67.69;102167.41;5059623;28;20111;-78
2022/05/02 02:42:02;;;;;;;17.17;8.00;;;;;;;5.21;68.72;102170.97;5058979;28;20032;-77
2022/05/02 02:44:28;;;;;;;15.05;7.15;;;;;;;5.07;69.20;102173.38;5059424;28;20086;-77
2022/05/02 02:46:53;;;;;;;12.75;7.10;;;;;;;4.89;70.23;102175.50;5071693;28;20070;-77
2022/05/02 02:49:19;;;;;;;14.00;7.13;;;;;;;4.83;70.07;102181.47;5054370;28;20099;-77
2022/05/02 02:51:44;;;;;;;11.35;6.72;;;;;;;4.84;70.02;102183.13;5054430;28;20039;-77
2022/05/02 02:54:10;;;;;;;11.50;6.03;;;;;;;4.86;69.59;102183.81;5051199;28;20035;-77
2022/05/02 02:56:38;;;;;;;9.02;6.28;;;;;;;4.85;69.02;102177.66;5052869;28;20035;-77
2022/05/02 02:59:04;;;;;;;10.93;6.03;;;;;;;4.85;69.27;102177.66;5057614;28;20090;-77
2022/05/02 03:01:30;;;;;;;10.90;5.57;;;;;;;4.84;69.03;102172.50;5057595;28;20020;-78
2022/05/02 03:03:56;;;;;;;8.98;6.07;;;;;;;4.79;69.47;102167.72;5058053;28;20790;-77
2022/05/02 03:06:21;;;;;;;15.25;6.03;;;;;;;4.75;68.66;102162.94;5058677;28;20024;-78
2022/05/02 03:08:47;;;;;;;15.73;6.97;;;;;;;4.72;69.15;102165.97;5063883;28;20038;-77
2022/05/02 03:11:13;;;;;;;23.38;6.63;;;;;;;4.69;69.11;102167.13;5059707;28;20570;-77
2022/05/02 03:13:38;;;;;;;25.05;6.65;;;;;;;4.67;69.26;102162.97;5058938;28;20505;-77
2022/05/02 03:16:05;;;;;;;14.25;6.30;;;;;;;4.65;69.23;102154.38;5064717;28;20021;-77
2022/05/02 03:18:34;;;;;;;16.05;6.35;;;;;;;4.64;69.03;102160.69;5060636;28;20082;-77
2022/05/02 03:21:00;;;;;;;13.00;6.32;;;;;;;4.63;69.15;102167.81;5057468;28;21667;-77
2022/05/02 03:23:26;;;;;;;15.13;7.63;;;;;;;4.58;69.69;102172.84;5058818;28;20091;-77
2022/05/02 03:25:52;;;;;;;9.60;6.45;;;;;;;4.48;70.33;102165.06;5065479;28;20033;-79
2022/05/02 03:28:17;;;;;;;15.27;7.05;;;;;;;4.49;70.22;102166.75;5066354;28;20726;-77
2022/05/02 03:30:43;;;;;;;10.20;6.13;;;;;;;4.51;69.86;102169.22;5060401;28;20067;-77
2022/05/02 03:33:09;;;;;;;10.13;6.38;;;;;;;4.48;69.57;102167.72;5062780;28;20069;-77
2022/05/02 03:35:35;;;;;;;9.98;6.32;;;;;;;4.46;69.59;102168.91;5061290;28;20058;-77
2022/05/02 03:38:00;;;;;;;10.27;6.20;;;;;;;4.40;69.32;102175.72;5062144;28;20073;-77
2022/05/02 03:40:26;;;;;;;9.10;5.97;;;;;;;4.36;69.33;102176.25;5058849;28;20043;-78
2022/05/02 03:42:51;;;;;;;10.10;5.97;;;;;;;4.32;69.19;102175.78;5059087;28;21396;-78
2022/05/02 03:45:17;;;;;;;9.98;6.10;;;;;;;4.28;69.35;102182.41;5057425;28;20031;-77
2022/05/02 03:47:43;;;;;;;8.90;5.68;;;;;;;4.25;69.25;102170.31;5055130;28;20430;-77
2022/05/02 03:50:09;;;;;;;10.25;6.68;;;;;;;4.21;69.15;102174.31;5037644;28;20090;-77
2022/05/02 03:52:35;;;;;;;9.13;6.25;;;;;;;4.18;69.14;102179.16;5070895;28;20425;-78
2022/05/02 03:55:01;;;;;;;7.57;5.57;;;;;;;4.16;68.92;102171.34;5058562;28;20107;-77
2022/05/02 03:57:27;;;;;;;8.65;5.70;;;;;;;4.16;69.19;102183.78;5054204;28;20028;-77
2022/05/02 03:59:52;;;;;;;7.85;4.95;;;;;;;4.15;69.19;102184.78;5053738;28;20040;-77
2022/05/02 04:02:18;;;;;;;10.60;6.00;;;;;;;4.15;68.76;102187.44;5056735;28;20028;-77
2022/05/02 04:04:43;;;;;;;9.55;5.70;;;;;;;4.15;69.13;102179.50;5057908;28;20036;-77
2022/05/02 04:07:09;;;;;;;7.93;5.68;;;;;;;4.16;68.89;102181.16;5063267;28;20547;-78
2022/05/02 04:09:34;;;;;;;9.15;5.85;;;;;;;4.15;69.10;102180.31;5074635;28;20032;-77
2022/05/02 04:12:01;;;;;;;8.93;5.60;;;;;;;4.17;68.86;102182.78;5059784;28;20020;-77
2022/05/02 04:14:27;;;;;;;13.88;6.40;;;;;;;4.19;68.83;102186.09;5055137;28;20056;-78
2022/05/02 04:16:52;;;;;;;22.55;6.40;;;;;;;4.21;69.24;102184.09;5055070;28;20055;-77
2022/05/02 04:19:19;;;;;;;19.40;5.72;;;;;;;4.24;69.22;102189.06;5059134;28;20058;-77
2022/05/02 04:21:45;;;;;;;14.23;5.95;;;;;;;4.28;69.33;102184.22;5058156;28;20043;-77
2022/05/02 04:24:10;;;;;;;14.25;6.10;;;;;;;4.32;69.56;102181.09;5058059;28;20024;-78
2022/05/02 04:26:36;;;;;;;12.18;6.00;;;;;;;4.36;69.65;102182.41;5055670;28;20032;-77
2022/05/02 04:29:02;;;;;;;9.82;5.50;;;;;;;4.42;69.52;102184.34;5053173;28;20029;-77
2022/05/02 04:31:27;;;;;;;10.05;5.95;;;;;;;4.49;69.49;102185.34;5054459;28;20032;-77
2022/05/02 04:33:52;;;;;;;12.70;5.93;;;;;;;4.54;69.94;102188.28;5055625;28;20028;-77
2022/05/02 04:36:18;;;;;;;16.92;6.20;;;;;;;4.63;69.98;102193.53;5054609;28;20105;-77
2022/05/02 04:38:44;;;;;;;13.40;6.80;;;;;;;4.70;69.62;102189.22;5050854;28;20032;-77
2022/05/02 04:41:13;;;;;;;15.18;6.30;;;;;;;4.79;69.79;102193.47;5057685;28;20067;-77
2022/05/02 04:43:40;;;;;;;14.80;6.68;;;;;;;4.86;69.86;102189.13;5052944;28;20034;-77
2022/05/02 04:46:07;;;;;;;13.68;6.03;;;;;;;4.94;70.20;102191.72;5056835;28;20020;-77
2022/05/02 04:48:32;;;;;;;16.45;6.22;;;;;;;5.03;70.08;102189.84;5044543;28;20616;-77
2022/05/02 04:50:58;;;;;;;12.32;7.18;;;;;;;5.12;69.82;102192.25;5041083;28;20028;-77
2022/05/02 04:53:23;;;;;;;14.60;6.78;;;;;;;5.23;69.83;102190.22;5038116;28;20036;-77
2022/05/02 04:55:49;;;;;;;13.25;5.95;;;;;;;5.35;69.63;102192.25;5058817;28;20108;-77
2022/05/02 04:58:15;;;;;;;13.32;6.45;;;;;;;5.49;69.60;102187.16;5056733;28;20478;-77
2022/05/02 05:00:41;;;;;;;15.90;6.53;;;;;;;5.61;69.63;102186.56;5052328;28;20387;-77
2022/05/02 05:03:07;;;;;;;20.40;6.47;;;;;;;5.72;69.36;102183.44;5063189;28;20028;-76
2022/05/02 05:05:32;;;;;;;19.38;7.25;;;;;;;5.85;69.77;102188.16;5064937;28;20027;-76
2022/05/02 05:07:58;;;;;;;31.20;9.15;;;;;;;5.98;69.76;102193.72;5064539;28;20119;-77
2022/05/02 05:10:23;;;;;;;28.92;7.45;;;;;;;6.10;69.60;102191.41;5060004;28;20028;-77
2022/05/02 05:13:04;;;;;;;19.13;7.65;;;;;;;6.20;69.54;102181.31;5066713;28;20016;-76
2022/05/02 05:19:23;;;;;;;17.02;7.72;;;;;;;6.60;69.28;102182.66;5059788;28;20039;-77
2022/05/02 05:22:07;;;;;;;17.48;7.22;;;;;;;6.87;69.00;102186.47;5043593;28;20031;-77
2022/05/02 05:25:14;;;;;;;13.65;7.53;;;;;;;7.13;68.93;102183.22;5066493;28;20036;-77
2022/05/02 05:28:17;;;;;;;18.65;8.25;;;;;;;7.44;68.90;102179.41;5055651;28;20028;-77
2022/05/02 05:30:50;;;;;;;14.52;6.75;;;;;;;7.63;67.61;102173.41;5059536;28;20039;-77
2022/05/02 05:33:22;;;;;;;14.02;7.38;;;;;;;7.73;67.42;102179.25;5053274;28;20036;-76
2022/05/02 05:36:13;;;;;;;17.55;7.35;;;;;;;7.73;67.59;102173.09;5056149;28;20058;-77
2022/05/02 05:38:57;;;;;;;13.82;8.05;;;;;;;7.75;67.38;102176.38;5060863;28;20036;-77
2022/05/02 05:41:41;;;;;;;14.57;8.35;;;;;;;7.75;67.64;102171.03;5054104;28;20032;-77
2022/05/02 05:44:34;;;;;;;10.18;6.53;;;;;;;7.88;67.92;102173.78;5058776;28;20024;-77
2022/05/02 05:47:32;;;;;;;13.43;7.75;;;;;;;8.09;67.16;102168.41;5055786;28;20586;-77
2022/05/02 05:50:11;;;;;;;18.60;6.55;;;;;;;8.29;67.32;102173.00;5030174;28;20128;-77
2022/05/02 05:52:52;;;;;;;13.52;7.35;;;;;;;8.40;66.74;102170.63;5052751;28;20111;-77
2022/05/02 05:55:53;;;;;;;12.15;8.13;;;;;;;8.57;66.58;102171.09;5053680;28;20089;-77
2022/05/02 05:58:46;;;;;;;13.48;7.70;;;;;;;8.73;66.32;102173.41;5056604;28;20115;-77
2022/05/02 06:01:25;;;;;;;17.50;8.90;;;;;;;8.93;66.06;102167.28;5052389;28;20071;-77
2022/05/02 06:04:03;;;;;;;12.30;7.32;;;;;;;9.03;65.81;102163.22;5054816;28;20028;-77
2022/05/02 06:06:29;;;;;;;15.77;8.43;;;;;;;9.19;65.78;102164.69;5058535;28;20062;-78
2022/05/02 06:08:58;;;;;;;16.67;8.70;;;;;;;9.31;65.53;102164.88;5057173;28;20107;-77
2022/05/02 06:11:25;;;;;;;14.15;7.93;;;;;;;9.45;65.36;102166.53;5063205;28;20102;-78
2022/05/02 06:13:53;;;;;;;14.68;7.90;;;;;;;9.58;64.90;102161.19;5066989;28;20028;-77
2022/05/02 06:19:13;;;;;;;14.60;8.77;;;;;;;9.84;64.59;102160.31;5055266;28;20114;-77
2022/05/02 06:22:01;;;;;;;15.00;8.63;;;;;;;9.97;64.36;102159.47;5060610;28;20030;-77
2022/05/02 06:24:31;;;;;;;15.32;8.60;;;;;;;10.15;63.87;102153.47;5059365;28;20059;-77
2022/05/02 06:26:58;;;;;;;15.95;8.95;;;;;;;10.26;63.89;102158.22;5060107;28;20023;-78
2022/05/02 06:29:24;;;;;;;13.40;7.78;;;;;;;10.41;63.71;102158.78;5056850;28;20056;-77
2022/05/02 06:31:55;;;;;;;16.83;7.80;;;;;;;10.54;63.62;102156.00;5056367;28;20525;-77
2022/05/02 06:34:27;;;;;;;13.25;8.05;;;;;;;10.73;62.59;102158.81;5059203;28;20025;-77
2022/05/02 06:37:31;;;;;;;14.75;7.78;;;;;;;10.71;62.00;102150.97;5058892;28;20085;-77
2022/05/02 06:39:57;;;;;;;13.32;7.80;;;;;;;10.76;61.98;102159.19;5069652;28;20080;-77
2022/05/02 06:42:41;;;;;;;18.45;7.75;;;;;;;10.77;61.46;102155.50;5067281;28;20035;-77
2022/05/02 06:45:25;;;;;;;16.17;6.78;;;;;;;10.94;61.73;102163.84;5063216;28;20074;-77
2022/05/02 06:47:59;;;;;;;16.88;7.20;;;;;;;11.17;61.26;102155.25;5065367;28;20028;-77
2022/05/02 06:50:28;;;;;;;16.48;6.85;;;;;;;11.39;60.99;102161.88;5064952;28;20044;-77
2022/05/02 06:53:09;;;;;;;14.30;6.35;;;;;;;11.61;60.69;102156.94;5067873;28;20436;-77
2022/05/02 06:55:53;;;;;;;10.75;6.35;;;;;;;11.84;60.19;102155.50;5065107;28;20050;-77
2022/05/02 06:58:39;;;;;;;11.43;6.20;;;;;;;12.02;59.09;102160.88;5069128;28;20035;-77
2022/05/02 07:01:25;;;;;;;13.27;6.47;;;;;;;12.19;58.18;102148.50;5065251;28;20097;-78
2022/05/02 07:03:53;;;;;;;15.63;5.82;;;;;;;12.28;58.17;102159.78;5060165;28;20425;-77
2022/05/02 07:06:50;;;;;;;20.52;7.43;;;;;;;12.31;56.64;102157.47;5062853;28;20032;-78
2022/05/02 07:09:33;;;;;;;10.05;4.68;;;;;;;12.41;55.41;102156.94;5065989;28;20021;-78
2022/05/02 07:12:06;;;;;;;5.65;4.00;;;;;;;12.53;56.23;102159.69;5050259;28;20025;-78
2022/05/02 07:14:48;;;;;;;10.07;4.70;;;;;;;12.71;55.93;102168.53;5065125;28;20120;-77
2022/05/02 07:17:23;;;;;;;9.60;5.03;;;;;;;12.73;54.86;102162.91;5065362;28;20033;-78
2022/05/02 07:19:58;;;;;;;8.05;5.18;;;;;;;12.79;55.43;102156.66;5064354;28;20028;-78
2022/05/02 07:23:05;;;;;;;6.78;4.20;;;;;;;12.85;54.01;102155.72;5064876;28;20020;-77
2022/05/02 07:25:31;;;;;;;10.40;4.95;;;;;;;13.14;54.43;102156.75;5062957;28;20036;-78
2022/05/02 07:28:06;;;;;;;6.28;3.65;;;;;;;13.28;52.87;102152.00;5069645;28;20024;-78
2022/05/02 07:30:32;;;;;;;8.43;3.70;;;;;;;13.38;52.70;102151.44;5070772;28;20032;-78
2022/05/02 07:33:01;;;;;;;5.70;3.22;;;;;;;13.52;51.97;102153.69;5066412;28;20123;-78
2022/05/02 07:35:29;;;;;;;6.93;3.78;;;;;;;13.73;52.05;102148.75;5070810;28;20056;-78
2022/05/02 07:37:57;;;;;;;12.30;4.30;;;;;;;13.92;51.91;102152.97;5065179;28;20117;-78
2022/05/02 07:40:25;;;;;;;8.98;3.83;;;;;;;14.11;51.75;102146.38;5061661;28;20198;-77
2022/05/02 07:42:53;;;;;;;8.88;4.57;;;;;;;14.29;51.60;102144.56;5059322;28;20370;-77
2022/05/02 07:45:24;;;;;;;8.45;4.28;;;;;;;14.47;51.54;102136.34;5061810;28;20054;-77
2022/05/02 07:47:53;;;;;;;7.47;4.25;;;;;;;14.66;51.14;102145.88;5060551;28;20036;-78
2022/05/02 07:50:21;;;;;;;7.05;4.05;;;;;;;14.77;50.16;102145.00;5065189;28;20036;-78
2022/05/02 07:52:48;;;;;;;7.38;4.50;;;;;;;14.82;49.90;102149.69;5064397;28;20027;-78
2022/05/02 07:55:16;;;;;;;6.78;4.10;;;;;;;14.94;49.88;102144.22;5060365;28;20040;-78
2022/05/02 07:57:42;;;;;;;7.40;4.00;;;;;;;15.13;49.92;102150.22;5057444;28;20128;-78
2022/05/02 08:00:10;;;;;;;8.32;3.85;;;;;;;15.31;49.62;102148.09;5058132;28;20585;-78
2022/05/02 08:02:37;;;;;;;9.25;3.83;;;;;;;15.46;48.50;102152.13;5061564;28;20056;-78
2022/05/02 08:05:04;;;;;;;6.68;3.58;;;;;;;15.56;48.45;102146.84;5061705;28;20085;-78
2022/05/02 08:07:42;;;;;;;6.75;3.60;;;;;;;15.61;47.80;102147.78;5062301;28;20020;-78
2022/05/02 08:10:25;;;;;;;9.43;3.63;;;;;;;15.76;48.08;102151.78;5064112;28;20478;-78
2022/05/02 08:13:21;;;;;;;7.65;3.90;;;;;;;15.84;46.43;102143.25;5063853;28;20036;-78
2022/05/02 08:16:01;;;;;;;5.78;3.00;;;;;;;15.84;46.76;102141.38;5072633;28;20056;-78
2022/05/02 08:18:45;;;;;;;7.55;3.13;;;;;;;15.96;46.26;102142.06;5062674;28;20054;-78
2022/05/02 08:21:17;;;;;;;6.55;3.35;;;;;;;16.05;45.72;102139.75;5063695;28;20028;-78
2022/05/02 08:27:19;;;;;;;7.38;3.00;;;;;;;16.24;46.20;102142.97;5070195;28;20035;-78
2022/05/02 08:30:13;;;;;;;7.90;2.70;;;;;;;16.29;45.46;102135.72;5064586;28;20066;-78
2022/05/02 08:32:57;;;;;;;10.70;3.05;;;;;;;16.54;46.15;102142.50;5054797;28;20024;-78
2022/05/02 08:35:44;;;;;;;6.82;3.65;;;;;;;16.66;45.71;102132.34;5071970;28;20036;-78
2022/05/02 08:38:21;;;;;;;5.93;3.40;;;;;;;16.64;44.18;102137.19;5071055;28;20024;-78
2022/05/02 08:41:08;;;;;;;9.63;3.38;;;;;;;16.66;42.26;102129.63;5062028;28;20112;-79
2022/05/02 08:43:56;;;;;;;4.93;3.22;;;;;;;16.84;43.98;102129.28;5069015;28;20028;-81
2022/05/02 08:47:09;;;;;;;4.55;2.97;;;;;;;17.00;42.73;102132.16;5064114;28;20024;-78
2022/05/02 08:50:08;;;;;;;9.07;3.33;;;;;;;17.25;43.07;102126.16;5037712;28;20131;-78
2022/05/02 08:53:27;;;;;;;6.22;2.90;;;;;;;17.33;41.58;102128.38;5067529;28;20028;-78
2022/05/02 08:56:20;;;;;;;3.40;2.50;;;;;;;17.11;39.79;102125.75;5069313;28;20085;-77
2022/05/02 08:58:52;;;;;;;4.43;2.70;;;;;;;17.16;39.97;102125.78;5070506;28;20021;-78
2022/05/02 09:01:42;;;;;;;3.13;1.83;;;;;;;16.60;35.28;102123.34;5068226;28;20052;-78
2022/05/02 09:04:10;;;;;;;4.32;2.63;;;;;;;16.46;37.39;102108.59;5062447;28;20531;-78
2022/05/02 09:06:57;;;;;;;2.58;2.22;;;;;;;16.26;36.19;102116.47;5064239;28;20405;-78
2022/05/02 09:09:34;;;;;;;5.13;3.05;;;;;;;16.24;38.13;102110.50;5064856;28;20025;-78
2022/05/02 09:12:19;;;;;;;6.18;3.13;;;;;;;16.31;39.15;102103.81;5066957;28;20028;-78
2022/05/02 09:15:01;;;;;;;5.75;2.72;;;;;;;16.61;37.29;102107.94;5063150;28;20115;-78
2022/05/02 09:17:54;;;;;;;5.18;2.60;;;;;;;16.77;37.67;102109.75;5063010;28;20059;-78
2022/05/02 09:20:41;;;;;;;6.18;2.75;;;;;;;17.07;39.32;102100.28;5064330;28;20450;-78
2022/05/02 09:23:11;;;;;;;5.32;2.60;;;;;;;17.41;39.74;102098.06;5064869;28;20035;-78
2022/05/02 09:25:57;;;;;;;4.78;2.80;;;;;;;17.67;39.58;102088.22;5065830;28;20034;-79
2022/05/02 09:28:28;;;;;;;5.05;2.70;;;;;;;17.62;39.31;102085.47;5062331;28;20482;-78
2022/05/02 09:31:19;;;;;;;3.65;2.78;;;;;;;17.48;35.20;102095.97;5063045;28;20046;-78
2022/05/02 09:34:08;;;;;;;4.95;2.55;;;;;;;17.38;35.09;102093.16;5066367;28;20028;-78
2022/05/02 09:36:58;;;;;;;4.65;2.17;;;;;;;17.14;35.94;102084.63;5064435;28;20028;-78
2022/05/02 09:39:46;;;;;;;5.15;2.83;;;;;;;17.36;36.49;102084.50;5061246;28;20466;-79
2022/05/02 09:42:39;;;;;;;4.97;2.65;;;;;;;17.72;36.15;102075.53;5052816;28;20086;-78
2022/05/02 09:52:01;;;;;;;7.88;3.72;;;;;;;17.58;34.14;102066.19;4984608;28;20181;-78
2022/05/02 09:57:35;;;;;;;7.45;2.88;;;;;;;18.29;36.30;102054.84;5072669;28;20089;-78
2022/05/02 10:03:05;;;;;;;4.85;2.70;;;;;;;18.29;33.80;102055.66;5067545;28;20051;-79
2022/05/02 10:05:45;;;;;;;6.95;3.30;;;;;;;18.19;34.57;102055.66;5067112;28;20024;-78
2022/05/02 10:08:27;;;;;;;7.10;2.88;;;;;;;18.15;34.51;102049.13;5069529;28;20031;-78
2022/05/02 10:10:59;;;;;;;5.75;3.28;;;;;;;18.17;34.40;102048.88;5061050;28;21021;-78
2022/05/02 10:14:14;;;;;;;3.92;2.70;;;;;;;18.08;35.18;102037.72;5064722;28;20047;-79
2022/05/02 10:16:45;;;;;;;4.63;3.05;;;;;;;18.22;33.32;102046.97;5041805;28;20037;-79
2022/05/02 10:19:46;;;;;;;8.23;3.00;;;;;;;17.92;33.50;102044.16;5036367;28;20044;-78
2022/05/02 10:22:27;;;;;;;5.30;2.92;;;;;;;18.24;34.38;102033.94;5061364;28;20125;-78
2022/05/02 10:25:19;;;;;;;5.05;3.17;;;;;;;18.63;33.84;102036.19;5069385;28;21020;-78
2022/05/02 10:28:04;;;;;;;6.03;2.80;;;;;;;18.97;33.96;102022.91;5070329;28;20032;-78
2022/05/02 10:30:41;;;;;;;3.88;2.83;;;;;;;19.20;32.86;102029.63;5066241;28;20123;-78
2022/05/02 10:33:15;;;;;;;4.00;2.50;;;;;;;19.30;34.03;102019.56;5064725;28;20020;-78
2022/05/02 10:35:45;;;;;;;3.30;2.67;;;;;;;19.33;33.20;102021.75;5066559;28;20143;-78
2022/05/02 10:38:19;;;;;;;6.63;3.28;;;;;;;19.23;33.84;102018.25;5065229;28;20021;-79
2022/05/02 10:40:52;;;;;;;6.27;2.87;;;;;;;19.04;33.69;102014.47;5065993;28;20086;-78
2022/05/02 10:43:26;;;;;;;7.65;3.15;;;;;;;19.20;33.95;102005.19;5067724;28;20100;-78
2022/05/02 10:45:53;;;;;;;4.55;3.22;;;;;;;19.40;34.44;101998.91;5062800;28;20115;-79
2022/05/02 10:48:18;;;;;;;10.07;3.53;;;;;;;19.36;34.17;101997.81;5061940;28;20024;-78
2022/05/02 10:51:13;;;;;;;4.15;3.00;;;;;;;19.52;32.77;101994.78;5067966;28;20029;-78
2022/05/02 10:54:00;;;;;;;5.45;3.33;;;;;;;19.25;32.81;101997.84;5015577;28;20575;-79
2022/05/02 10:56:35;;;;;;;6.30;3.55;;;;;;;19.46;33.48;101995.06;5066682;28;20028;-78
2022/05/02 10:59:04;;;;;;;5.95;3.78;;;;;;;19.77;33.52;101982.22;5062323;28;20115;-78
2022/05/02 11:02:20;;;;;;;8.00;3.00;;;;;;;20.09;33.31;101990.69;5068982;28;20028;-78
2022/05/02 11:05:09;;;;;;;7.03;3.17;;;;;;;19.87;32.60;101985.66;5062486;28;20715;-78
2022/05/02 11:07:50;;;;;;;5.43;3.05;;;;;;;19.86;32.92;101985.94;5068903;28;20658;-79
2022/05/02 11:10:20;;;;;;;4.05;2.80;;;;;;;19.73;31.97;101986.56;5073231;28;20067;-78
2022/05/02 11:13:21;;;;;;;5.38;3.08;;;;;;;19.96;33.72;101975.03;5065390;28;20032;-78
2022/05/02 11:16:09;;;;;;;6.93;3.15;;;;;;;20.08;32.11;101978.19;4985083;28;20034;-77
2022/05/02 11:21:46;;;;;;;5.88;3.50;;;;;;;19.88;32.52;101976.41;5059299;28;20102;-78
2022/05/02 11:24:28;;;;;;;5.50;2.92;;;;;;;19.82;31.44;101972.09;5061223;28;20024;-79
2022/05/02 11:27:38;;;;;;;5.88;3.28;;;;;;;19.68;31.46;101962.94;5062540;28;20429;-77
2022/05/02 11:30:07;;;;;;;5.18;3.13;;;;;;;19.60;33.00;101964.34;5060831;28;20032;-78
2022/05/02 11:33:02;;;;;;;5.57;3.42;;;;;;;19.87;32.82;101971.25;5051770;28;20051;-79
2022/05/02 11:35:32;;;;;;;6.85;3.80;;;;;;;20.21;33.05;101963.97;5065917;28;20028;-78
2022/05/02 11:38:30;;;;;;;5.43;3.22;;;;;;;20.28;32.53;101965.53;5062871;28;20028;-78
2022/05/02 11:41:09;;;;;;;11.35;4.10;;;;;;;20.31;32.12;101954.13;5061843;28;20029;-78
2022/05/02 11:43:38;;;;;;;9.90;3.13;;;;;;;20.62;32.13;101950.03;5062036;28;20032;-78
2022/05/02 11:46:20;;;;;;;9.00;3.30;;;;;;;20.89;29.53;101949.53;5062671;28;20020;-78
2022/05/02 11:49:16;;;;;;;6.22;3.30;;;;;;;20.76;29.81;101945.56;5062610;28;20960;-78
2022/05/02 11:51:53;;;;;;;4.97;3.13;;;;;;;20.88;31.06;101934.28;5063403;28;20510;-78
2022/05/02 11:54:27;;;;;;;6.30;3.33;;;;;;;20.68;29.45;101937.22;5060769;28;20028;-78
2022/05/02 11:57:28;;;;;;;6.82;3.75;;;;;;;20.32;31.01;101928.53;5064744;28;20035;-78
2022/05/02 11:59:56;;;;;;;5.78;3.33;;;;;;;20.57;31.38;101924.78;5060148;28;20036;-77
2022/05/02 12:02:45;;;;;;;4.97;3.47;;;;;;;20.79;30.52;101927.81;5057384;28;20852;-78
2022/05/02 12:05:24;;;;;;;7.28;3.72;;;;;;;21.10;30.80;101918.22;5061064;28;20482;-78
2022/05/02 12:07:57;;;;;;;4.30;3.03;;;;;;;21.16;30.79;101916.25;5060616;28;20513;-78
2022/05/02 12:10:39;;;;;;;5.65;3.33;;;;;;;21.34;30.45;101909.25;5065942;28;20032;-78
2022/05/02 12:13:07;;;;;;;7.38;3.33;;;;;;;21.46;30.22;101903.38;5062292;28;20037;-77
2022/05/02 12:15:33;;;;;;;6.63;4.10;;;;;;;21.49;30.01;101909.03;5064535;28;20032;-79
2022/05/02 12:18:01;;;;;;;5.88;3.08;;;;;;;21.70;30.13;101906.84;5064106;28;20050;-78
2022/05/02 12:20:29;;;;;;;3.92;3.10;;;;;;;21.45;30.05;101899.03;5065628;28;20043;-78
2022/05/02 12:23:00;;;;;;;4.55;3.22;;;;;;;21.68;30.28;101900.88;5064063;28;20039;-77
2022/05/02 12:25:28;;;;;;;5.55;3.55;;;;;;;21.66;30.27;101903.91;5062751;28;20055;-78
2022/05/02 12:27:55;;;;;;;5.57;3.75;;;;;;;21.73;30.56;101906.28;5060391;28;21087;-78